EDMA/AGB METAR and TAF weather

Enter ICAO airport designator
Station Type Date Time Source
EDMA METAR 2022/01/26 13:50 UTC NOAA

EDMA 261350Z 32006KT 8000 SCT005 M00/M01 Q1029


Station Type Date Time Source
EDMA Decoded METAR 2022/01/26 13:50 UTC NOAA

Augsburg, Germany (EDMA) 48-26N 010-56E 463M
Jan 26, 2022 - 08:50 AM EST / 2022.01.26 1350 UTC
Wind: from the NW (320 degrees) at 7 MPH (6 KT):0
Visibility: 4 mile(s):0
Sky conditions: partly cloudy
Temperature: 32 F (0 C)
Windchill: 24 F (-4 C):1
Dew Point: 30 F (-1 C)
Relative Humidity: 92%
Pressure (altimeter): 30.39 in. Hg (1029 hPa)
ob: EDMA 261350Z 32006KT 8000 SCT005 M00/M01 Q1029
cycle: 14

Station Type Date Time Source
EDMA TAF 2010/02/22 13:50 UTC NOAA

METAR EDMA 221350Z 23006KT CAVOK 10/02 Q0996

Example: see airport list